S&P 500   3,006.72 (+0.69%)
DOW   26,827.64 (+0.21%)
QQQ   193.39 (+0.89%)
AAPL   240.51 (+1.73%)
FB   189.75 (+2.10%)
MSFT   138.39 (+0.71%)
GOOGL   1,244.23 (-0.01%)
AMZN   1,785.67 (+1.60%)
CGC   20.35 (+0.69%)
NVDA   196.11 (+2.95%)
MU   45.25 (+4.09%)
BABA   173.52 (+2.60%)
GE   8.79 (-1.90%)
TSLA   253.46 (-1.36%)
AMD   32.07 (+3.52%)
T   38.23 (-0.62%)
F   9.03 (-2.80%)
ACB   3.69 (+0.27%)
PRI   125.69 (+1.75%)
NFLX   278.05 (+1.00%)
BAC   31.02 (+2.21%)
GILD   65.22 (+0.48%)
DIS   130.26 (-0.48%)
S&P 500   3,006.72 (+0.69%)
DOW   26,827.64 (+0.21%)
QQQ   193.39 (+0.89%)
AAPL   240.51 (+1.73%)
FB   189.75 (+2.10%)
MSFT   138.39 (+0.71%)
GOOGL   1,244.23 (-0.01%)
AMZN   1,785.67 (+1.60%)
CGC   20.35 (+0.69%)
NVDA   196.11 (+2.95%)
MU   45.25 (+4.09%)
BABA   173.52 (+2.60%)
GE   8.79 (-1.90%)
TSLA   253.46 (-1.36%)
AMD   32.07 (+3.52%)
T   38.23 (-0.62%)
F   9.03 (-2.80%)
ACB   3.69 (+0.27%)
PRI   125.69 (+1.75%)
NFLX   278.05 (+1.00%)
BAC   31.02 (+2.21%)
GILD   65.22 (+0.48%)
DIS   130.26 (-0.48%)
Log in

Landstar System Institutional Ownership (NASDAQ:LSTR)

$114.09
+0.61 (+0.54 %)
(As of 10/21/2019 04:00 PM ET)
Today's Range
$113.70
Now: $114.09
$115.22
50-Day Range
$108.60
MA: $112.22
$116.71
52-Week Range
$90.23
Now: $114.09
$120.23
Volume324,721 shs
Average Volume349,762 shs
Market Capitalization$4.52 billion
P/E Ratio18.46
Dividend Yield0.65%
Beta1.3

Institutional Ownership

Institutional Ownership Changes (13F Filings) for Landstar System (NASDAQ:LSTR)

 

Landstar System (NASDAQ LSTR) Institutional Buying and Selling

Reporting DateHedge FundShares HeldMarket Value% of PortfolioQuarterly Change in SharesOwnership in Company
10/21/2019Boston Trust Walden Corp207,364$23.35M0.3%+0.8%0.523%
10/21/2019Morris Capital Advisors LLC24,949$2.81M2.5%-3.8%0.063%
10/18/2019Cardinal Capital Management15,977$1.80M0.5%-0.9%0.040%
10/17/2019Envestnet Asset Management Inc.32,928$3.71M0.0%+31.9%0.083%
10/17/2019Robeco Institutional Asset Management B.V.9,752$1.10M0.0%+23.9%0.025%
10/17/2019Meeder Asset Management Inc.10,081$1.14M0.1%-41.0%0.025%
10/16/2019Assenagon Asset Management S.A.20,997$2.36M0.0%N/A0.053%
10/15/2019Mountain Pacific Investment Advisers Inc. ID238,199$26.82M2.4%-0.4%0.601%
10/10/2019Pacer Advisors Inc.21,077$2.37M0.1%-6.4%0.053%
10/9/2019Denali Advisors LLC13,500$1.52M0.2%-54.4%0.034%
10/9/2019Cerebellum GP LLC3,849$0.43M0.2%N/A0.010%
10/7/2019Hennessy Advisors Inc.118,600$13.35M0.7%-9.8%0.299%
10/2/2019State of Alaska Department of Revenue7,047$0.79M0.0%+51.0%0.018%
10/1/2019Park National Corp OH1,836$0.21M0.0%N/A0.005%
9/24/2019Macquarie Group Ltd.3,300$0.36M0.0%N/A0.008%
8/29/2019Hancock Whitney Corp69,087$7.46M0.2%-7.7%0.174%
8/26/2019Boston Partners90,803$9.81M0.0%N/A0.229%
8/23/2019Treasurer of the State of North Carolina16,349$1.77M0.0%+2.8%0.041%
8/23/2019BlackRock Inc.5,197,268$561.26M0.0%-8.7%13.114%
8/22/2019Natixis38,515$4.16M0.0%+35.8%0.097%
8/20/2019Barings LLC2,740$0.30M0.0%N/A0.007%
8/19/2019Colony Group LLC23,602$2.55M0.1%+1.4%0.060%
8/17/2019Kayne Anderson Rudnick Investment Management LLC878,930$94.92M0.5%+0.5%2.218%
8/17/2019Maverick Capital Ltd.52,820$5.70M0.1%N/A0.133%
8/17/2019Magnetar Financial LLC3,099$0.34M0.0%N/A0.008%
8/17/2019Royal Bank of Canada350,113$37.81M0.0%+0.8%0.883%
8/17/2019Ladenburg Thalmann Financial Services Inc.1,709$0.18M0.0%-18.6%0.004%
8/16/2019First Manhattan Co.1,100$0.12M0.0%-47.6%0.003%
8/16/2019Eaton Vance Management148,752$16.06M0.0%+10.6%0.375%
8/16/2019United Services Automobile Association5,987$0.65M0.0%-5.1%0.015%
8/15/2019California Public Employees Retirement System73,912$7.98M0.0%-13.8%0.187%
8/15/2019Nuveen Asset Management LLC157,305$16.99M0.0%N/A0.397%
8/15/2019Price T Rowe Associates Inc. MD2,228,045$240.61M0.0%-0.7%5.622%
8/15/2019Victory Capital Management Inc.2,292,725$247.59M0.5%+10.2%5.785%
8/15/2019UBS Asset Management Americas Inc.63,659$6.88M0.0%-54.0%0.161%
8/15/2019Jane Street Group LLC6,209$0.67M0.0%+88.8%0.016%
8/14/2019D. E. Shaw & Co. Inc.28,126$3.04M0.0%-17.3%0.071%
8/14/2019Point72 Hong Kong Ltd4,008$0.43M0.1%+129.2%0.010%
8/14/2019Cubist Systematic Strategies LLC9,100$0.98M0.0%+393.2%0.023%
8/14/2019Morgan Stanley53,385$5.77M0.0%-31.0%0.135%
8/14/2019AQR Capital Management LLC157,814$17.04M0.0%-30.1%0.398%
8/14/2019Paloma Partners Management Co13,516$1.46M0.0%+92.6%0.034%
8/14/2019Man Group plc284,699$30.75M0.1%+52.3%0.718%
8/14/2019Bank of America Corp DE358,767$38.74M0.0%-5.0%0.905%
8/14/2019Ensemble Capital Management LLC438,957$47.40M6.7%+4.0%1.108%
8/14/2019Zebra Capital Management LLC2,800$0.30M0.2%-16.4%0.007%
8/14/2019Algert Global LLC12,089$1.31M0.5%+25.8%0.031%
8/14/2019Invesco Ltd.35,126$3.79M0.0%-93.3%0.089%
8/14/2019Vanguard Group Inc.4,134,514$446.49M0.0%+9.5%10.433%
8/14/2019Ellington Management Group LLC3,100$0.34M0.1%N/A0.008%
8/14/2019AMP Capital Investors Ltd22,800$2.40M0.0%+76.7%0.058%
8/14/2019Holocene Advisors LP19,028$2.06M0.0%+142.3%0.048%
8/13/2019NumerixS Investment Technologies Inc2,900$0.31M0.1%-9.4%0.007%
8/13/2019Atlanta Capital Management Co. L L C2,337,427$252.42M1.1%+0.0%5.898%
8/13/2019Jacobs Levy Equity Management Inc.405,097$43.75M0.6%+3.8%1.022%
8/13/2019Tower Research Capital LLC TRC3,473$0.38M0.0%-38.5%0.009%
8/13/2019BlackRock Inc.5,197,268$561.26M0.0%-8.7%13.114%
8/13/2019US Bancorp DE3,267$0.35M0.0%-19.3%0.008%
8/13/2019ETRADE Capital Management LLC11,872$1.28M0.0%-3.2%0.030%
8/13/2019HighTower Advisors LLC8,128$0.88M0.0%+16.4%0.021%
8/13/2019Pinebridge Investments L.P.96,854$10.46M0.2%N/A0.244%
8/13/2019Profund Advisors LLC3,613$0.39M0.0%-7.6%0.009%
8/13/2019APG Asset Management N.V.228,900$21.71M0.0%+81.8%0.578%
8/13/2019Parametric Portfolio Associates LLC103,994$11.23M0.0%-9.8%0.262%
8/13/2019Grantham Mayo Van Otterloo & Co. LLC14,017$1.51M0.0%-35.9%0.035%
8/13/2019Natixis38,515$4.16M0.0%+35.8%0.097%
8/13/2019Cibc World Markets Corp53,600$5.79M0.0%N/A0.135%
8/13/2019Glen Harbor Capital Management LLC3,520$0.38M0.0%+6.3%0.009%
8/13/2019Commonwealth Bank of Australia3,700$0.40M0.0%+42.3%0.009%
8/13/2019Tyers Asset Management LLC4,840$0.52M0.0%+6.3%0.012%
8/13/2019Flinton Capital Management LLC6,160$0.67M0.0%+6.3%0.016%
8/13/2019Northern Trust Corp661,013$71.38M0.0%+1.2%1.668%
8/13/2019Neuburgh Advisers LLC7,480$0.81M0.0%+6.3%0.019%
8/13/2019Natixis Advisors L.P.144,534$15.61M0.1%-0.6%0.365%
8/12/2019Public Employees Retirement System of Ohio120,768$13.04M0.1%-7.2%0.305%
8/12/2019Brown Advisory Inc.9,580$1.04M0.0%-36.9%0.024%
8/12/2019Riverhead Capital Management LLC5,591$0.60M0.0%+5.7%0.014%
8/12/2019Pacer Advisors Inc.22,507$2.43M0.1%+442.1%0.057%
8/12/2019Cadence Capital Management LLC12,406$1.34M0.1%+20.1%0.031%
8/12/2019Renaissance Technologies LLC152,840$16.51M0.0%+1,128.6%0.386%
8/12/2019Crawford Investment Counsel Inc.40,778$4.40M0.1%-6.4%0.103%
8/12/2019Bank of New York Mellon Corp684,082$73.87M0.0%+27.4%1.726%
8/12/2019Bahl & Gaynor Inc.14,605$1.58M0.0%+2.2%0.037%
8/12/2019M&T Bank Corp4,597$0.50M0.0%-4.6%0.012%
8/10/2019LPL Financial LLC9,404$1.02M0.0%-2.9%0.024%
8/10/2019Charles Schwab Investment Management Inc.277,989$30.02M0.0%+1.3%0.701%
8/9/2019Bank of Montreal Can20,675$2.23M0.0%-12.3%0.052%
8/9/2019Rockefeller Capital Management L.P.409$44K0.0%-81.7%0.001%
8/9/2019Russell Investments Group Ltd.181,782$19.55M0.0%-26.1%0.459%
8/9/2019Vaughan Nelson Investment Management L.P.505,530$54.59M0.7%-1.6%1.276%
8/9/2019Prudential Financial Inc.195,574$21.12M0.0%-24.7%0.493%
8/9/2019Schroder Investment Management Group878,100$94.83M0.1%+30.6%2.216%
8/9/2019OMERS ADMINISTRATION Corp25,900$2.84M0.0%N/A0.065%
8/9/2019RBA Wealth Management LLC25,211$2.72M2.1%-3.3%0.064%
8/8/2019Acadian Asset Management LLC22,403$2.42M0.0%-23.5%0.057%
8/8/2019Capco Asset Management LLC87,371$9.44M5.2%+96.3%0.220%
8/8/2019Smith Asset Management Group LP317$34K0.0%-99.9%0.001%
8/7/2019BB&T Securities LLC12,345$1.33M0.0%-37.4%0.031%
8/7/2019Alps Advisors Inc.3,481$0.38M0.0%-5.0%0.009%
8/7/2019Janus Henderson Group PLC19,511$2.11M0.0%-16.3%0.049%
(Data available from 1/1/2016 forward)
This page was last updated on 10/21/2019 by MarketBeat.com Staff

Featured Article: What is insider trading?

Enter your email address below to receive a concise daily summary of analysts' upgrades, downgrades and new coverage with MarketBeat.com's FREE daily email newsletter.

Yahoo Gemini Pixel